Time;durP1;ratioP1;P1;durP2;ratioP2;P2;SDS_P1;SDS_P2;PMS_P1;PMS_P2;Temp;Humidity;BMP_temperature;BMP_pressure;BME280_temperature;BME280_humidity;BME280_pressure;Samples;Min_cycle;Max_cycle;Signal;HPM_P1;HPM_P2
2022/07/04 00:00:16;;;;;;;16.42;9.00;;;;;;;30.74;41.74;101098.72;4991465;28;20058;-81
2022/07/04 00:02:44;;;;;;;11.90;9.20;;;;;;;30.32;41.79;101019.94;4990931;28;20670;-80
2022/07/04 00:05:12;;;;;;;15.18;8.55;;;;;;;30.74;41.56;101089.66;4991403;28;20057;-80
2022/07/04 00:07:40;;;;;;;16.92;9.55;;;;;;;30.78;41.68;101108.06;4990824;28;20464;-82
2022/07/04 00:10:09;;;;;;;21.55;9.90;;;;;;;30.39;41.74;101033.41;4989412;28;20465;-79
2022/07/04 00:12:36;;;;;;;14.73;8.57;;;;;;;30.51;41.63;101049.69;4991416;28;20100;-81
2022/07/04 00:15:05;;;;;;;15.75;9.77;;;;;;;30.30;41.78;101022.13;4991528;28;20077;-80
2022/07/04 00:17:32;;;;;;;11.43;8.82;;;;;;;30.48;41.91;101058.44;4991809;28;20104;-81
2022/07/04 00:19:58;;;;;;;12.98;9.40;;;;;;;30.12;42.17;101006.00;5008601;28;20061;-80
2022/07/04 00:22:25;;;;;;;10.88;8.85;;;;;;;30.69;42.33;101109.63;5008126;28;20077;-81
2022/07/04 00:24:52;;;;;;;15.90;8.48;;;;;;;30.71;42.46;101114.81;4990669;28;20046;-82
2022/07/04 00:27:19;;;;;;;13.57;8.60;;;;;;;30.68;41.87;101110.69;4990764;28;20476;-81
2022/07/04 00:29:46;;;;;;;13.90;8.80;;;;;;;30.37;42.08;101066.56;4990635;28;20054;-80
2022/07/04 00:32:12;;;;;;;12.55;8.82;;;;;;;29.93;42.33;101000.88;4990978;28;20053;-81
2022/07/04 00:34:39;;;;;;;16.60;8.75;;;;;;;30.39;42.42;101064.41;4991106;28;20061;-81
2022/07/04 00:37:06;;;;;;;17.33;9.02;;;;;;;30.67;42.32;101103.56;5007953;28;20050;-81
2022/07/04 00:39:33;;;;;;;13.02;8.68;;;;;;;30.53;41.99;101091.34;4982366;28;20050;-80
2022/07/04 00:42:06;;;;;;;9.20;8.23;;;;;;;30.21;41.58;101043.59;4972230;28;20108;-81
2022/07/04 00:44:36;;;;;;;9.50;7.82;;;;;;;30.58;41.67;101105.09;4988607;28;20064;-81
2022/07/04 00:47:07;;;;;;;9.77;7.75;;;;;;;30.45;41.50;101085.25;4971547;28;20155;-81
2022/07/04 00:49:34;;;;;;;15.20;8.27;;;;;;;30.57;41.44;101098.00;4970689;28;20132;-82
2022/07/04 00:52:02;;;;;;;14.70;8.18;;;;;;;30.19;41.29;101064.13;4971441;28;20046;-80
2022/07/04 00:54:31;;;;;;;9.73;7.13;;;;;;;30.42;41.01;101102.22;4988691;28;20497;-78
2022/07/04 00:56:59;;;;;;;14.52;8.27;;;;;;;30.43;41.41;101103.84;4990944;28;20344;-81
2022/07/04 00:59:27;;;;;;;12.50;7.35;;;;;;;29.77;41.45;101005.31;4990755;28;20049;-81
2022/07/04 01:01:54;;;;;;;11.85;7.65;;;;;;;30.37;41.24;101104.91;4990592;28;20061;-81
2022/07/04 01:04:21;;;;;;;10.70;7.55;;;;;;;30.26;40.64;101086.69;4990663;28;20208;-81
2022/07/04 01:06:49;;;;;;;11.50;7.10;;;;;;;29.63;40.63;100989.50;4989900;28;20449;-80
2022/07/04 01:09:17;;;;;;;12.30;7.20;;;;;;;30.17;40.46;101083.56;4990670;28;20057;-82
2022/07/04 01:11:49;;;;;;;8.38;6.65;;;;;;;30.32;40.19;101117.69;5007716;28;20057;-81
2022/07/04 01:14:16;;;;;;;8.93;7.10;;;;;;;30.15;39.82;101073.94;4990635;28;20066;-81
2022/07/04 01:16:43;;;;;;;11.68;6.88;;;;;;;30.32;40.23;101093.03;4989956;28;20145;-82
2022/07/04 01:19:10;;;;;;;8.70;6.97;;;;;;;30.15;40.17;101063.00;4990995;28;20227;-81
2022/07/04 01:21:37;;;;;;;9.48;7.35;;;;;;;30.37;39.95;101077.50;4990064;28;20081;-82
2022/07/04 01:24:04;;;;;;;10.70;7.22;;;;;;;29.67;39.25;100946.94;4990260;28;20177;-82
2022/07/04 01:26:31;;;;;;;7.90;6.75;;;;;;;29.41;39.72;100916.47;5008046;28;20050;-81
2022/07/04 01:28:57;;;;;;;13.10;7.15;;;;;;;30.02;39.59;101025.88;4991133;28;20060;-80
2022/07/04 01:31:24;;;;;;;8.07;7.22;;;;;;;29.66;39.89;100981.63;5008727;28;20496;-81
2022/07/04 01:33:51;;;;;;;7.68;6.85;;;;;;;30.18;40.18;101084.38;4993040;28;20057;-79
2022/07/04 01:36:18;;;;;;;8.65;6.55;;;;;;;30.33;40.13;101090.06;4993324;28;20183;-80
2022/07/04 01:38:46;;;;;;;7.40;6.57;;;;;;;30.31;40.08;101094.97;4989549;28;20058;-79
2022/07/04 01:41:12;;;;;;;9.55;7.28;;;;;;;30.08;39.89;101040.47;4972500;28;20080;-80
2022/07/04 01:43:39;;;;;;;14.00;6.82;;;;;;;30.43;39.95;101097.56;4972687;28;20457;-81
2022/07/04 01:46:06;;;;;;;8.35;7.47;;;;;;;30.12;40.47;101069.78;4973146;28;20218;-81
2022/07/04 01:48:34;;;;;;;8.80;6.95;;;;;;;30.28;40.57;101111.91;4973251;28;20490;-80
2022/07/04 01:51:01;;;;;;;8.50;7.65;;;;;;;30.28;40.70;101111.91;4971091;28;20058;-80
2022/07/04 01:53:27;;;;;;;11.82;7.30;;;;;;;29.78;41.01;101012.47;4970219;28;20064;-79
2022/07/04 01:55:54;;;;;;;14.18;7.88;;;;;;;29.81;41.38;101039.31;4970009;28;20113;-80
2022/07/04 01:58:21;;;;;;;10.35;7.78;;;;;;;29.89;41.41;101073.63;4970177;28;20046;-80
2022/07/04 02:03:33;;;;;;;12.73;7.93;;;;;;;30.02;42.20;101107.97;4987298;28;20159;-81
2022/07/04 02:06:00;;;;;;;11.45;8.85;;;;;;;30.01;42.83;101107.16;4970144;28;20062;-82
2022/07/04 02:09:14;;;;;;;11.70;8.85;;;;;;;29.48;43.14;101034.72;4987537;28;20062;-81
2022/07/04 02:11:13;;;;;;;12.90;9.35;;;;;;;29.59;43.67;101085.78;4987293;28;20161;-81
2022/07/04 02:13:40;;;;;;;12.57;8.82;;;;;;;28.23;44.23;100890.09;4987583;28;20458;-81
2022/07/04 02:16:07;;;;;;;13.02;9.00;;;;;;;29.44;44.58;101104.66;4970223;28;20490;-82
2022/07/04 02:18:34;;;;;;;12.77;9.40;;;;;;;29.46;44.67;101099.78;4969981;28;20184;-81
2022/07/04 02:21:01;;;;;;;10.05;8.57;;;;;;;28.71;44.96;101005.34;4969908;28;20535;-81
2022/07/04 02:23:28;;;;;;;15.55;9.70;;;;;;;29.19;45.33;101105.91;4970551;28;20054;-81
2022/07/04 02:25:54;;;;;;;14.63;10.10;;;;;;;29.04;45.37;101074.75;4987247;28;20054;-83
2022/07/04 02:28:21;;;;;;;11.80;9.70;;;;;;;29.05;45.53;101081.88;4969929;28;20101;-81
2022/07/04 02:30:48;;;;;;;14.77;10.10;;;;;;;28.06;45.64;100921.97;4987094;28;20618;-82
2022/07/04 02:33:14;;;;;;;15.45;10.60;;;;;;;29.07;45.84;101107.91;4970545;28;20046;-81
2022/07/04 02:35:41;;;;;;;12.48;10.48;;;;;;;29.17;45.93;101119.00;4991185;28;20061;-81
2022/07/04 02:38:08;;;;;;;15.68;10.90;;;;;;;28.71;46.28;101076.38;4973625;28;20466;-82
2022/07/04 02:40:34;;;;;;;12.38;9.68;;;;;;;28.87;46.60;101124.75;4973606;28;20081;-81
2022/07/04 02:43:01;;;;;;;12.68;10.07;;;;;;;28.37;47.06;101075.44;4974237;28;20065;-81
2022/07/04 02:45:28;;;;;;;15.43;9.65;;;;;;;28.47;47.19;101108.41;4991229;28;20069;-80
2022/07/04 02:47:54;;;;;;;12.20;9.68;;;;;;;28.23;47.56;101073.00;4974009;28;20054;-81
2022/07/04 02:50:21;;;;;;;10.93;9.35;;;;;;;28.51;47.54;101120.53;4973485;28;20055;-78
2022/07/04 02:52:48;;;;;;;15.55;9.73;;;;;;;28.47;47.48;101116.59;4995166;28;20224;-80
2022/07/04 02:55:14;;;;;;;13.38;9.70;;;;;;;28.10;47.85;101065.06;5010111;28;20050;-83
2022/07/04 02:57:41;;;;;;;10.98;9.82;;;;;;;28.39;47.74;101116.97;4993467;28;20054;-80
2022/07/04 03:00:09;;;;;;;11.43;9.20;;;;;;;27.81;47.66;101015.88;4993133;28;20607;-81
2022/07/04 03:02:35;;;;;;;11.88;9.07;;;;;;;28.20;47.29;101081.66;4992665;28;20064;-80
2022/07/04 03:05:02;;;;;;;18.95;10.10;;;;;;;28.04;47.53;101055.13;4992861;28;20046;-84
2022/07/04 03:07:29;;;;;;;13.88;10.27;;;;;;;28.25;47.44;101084.47;4993298;28;20123;-81
2022/07/04 03:09:56;;;;;;;15.60;9.60;;;;;;;28.33;47.30;101096.94;4992633;28;20069;-81
2022/07/04 03:12:22;;;;;;;15.73;9.63;;;;;;;28.26;47.65;101075.22;5010240;28;20064;-81
2022/07/04 03:14:49;;;;;;;14.55;9.85;;;;;;;28.45;47.68;101105.06;4992445;28;20057;-80
2022/07/04 03:17:16;;;;;;;9.57;8.60;;;;;;;27.94;47.68;101013.97;4992461;28;20052;-82
2022/07/04 03:19:43;;;;;;;10.23;9.05;;;;;;;28.38;47.68;101067.00;4992584;28;20054;-81
2022/07/04 03:22:10;;;;;;;14.88;9.43;;;;;;;28.60;47.10;101102.69;5009623;28;20453;-81
2022/07/04 03:24:37;;;;;;;13.95;9.95;;;;;;;28.63;46.78;101102.19;4992010;28;20108;-82
2022/07/04 03:27:04;;;;;;;11.35;8.98;;;;;;;28.43;47.06;101075.28;4992013;28;20046;-81
2022/07/04 03:29:30;;;;;;;14.98;9.93;;;;;;;27.84;46.93;100958.16;5009573;28;20070;-81
2022/07/04 03:31:58;;;;;;;18.52;10.52;;;;;;;28.59;46.60;101076.41;5010037;28;20379;-82
2022/07/04 03:34:26;;;;;;;13.35;9.23;;;;;;;28.58;46.99;101072.03;5010242;28;20091;-81
2022/07/04 03:36:53;;;;;;;15.90;10.15;;;;;;;28.49;47.40;101084.44;4993189;28;20482;-81
2022/07/04 03:39:20;;;;;;;17.17;10.02;;;;;;;28.66;46.98;101117.25;4986784;28;20065;-82
2022/07/04 03:41:47;;;;;;;15.52;9.77;;;;;;;28.57;47.18;101125.03;4991704;28;20389;-82
2022/07/04 03:44:14;;;;;;;13.48;9.65;;;;;;;28.61;47.11;101136.28;4972661;28;20046;-81
2022/07/04 03:46:41;;;;;;;17.25;10.07;;;;;;;28.48;47.77;101137.41;4972761;28;20058;-81
2022/07/04 03:49:10;;;;;;;16.25;10.55;;;;;;;28.41;47.99;101126.56;4973301;28;20525;-79
2022/07/04 03:51:36;;;;;;;14.90;9.57;;;;;;;28.10;47.98;101070.53;4975715;28;20096;-79
2022/07/04 03:54:03;;;;;;;16.65;10.18;;;;;;;28.51;47.92;101135.00;4994182;28;20136;-80
2022/07/04 03:56:30;;;;;;;16.00;9.75;;;;;;;28.60;47.29;101129.16;5005071;28;20046;-82
2022/07/04 03:58:57;;;;;;;15.90;9.45;;;;;;;28.64;47.86;101133.88;5008827;28;20062;-80
2022/07/04 04:01:24;;;;;;;14.20;9.13;;;;;;;28.46;47.73;101112.22;5008709;28;20056;-81
2022/07/04 04:06:36;;;;;;;10.45;9.40;;;;;;;28.48;47.85;101132.75;5026824;28;20165;-81
2022/07/04 04:09:03;;;;;;;12.68;8.93;;;;;;;28.47;47.38;101133.00;4992578;28;20046;-81
2022/07/04 04:11:35;;;;;;;13.20;9.30;;;;;;;28.00;47.92;101040.31;4980848;28;20046;-81
2022/07/04 04:14:02;;;;;;;13.90;9.25;;;;;;;28.58;47.44;101147.69;4972936;28;20135;-81
2022/07/04 04:16:29;;;;;;;11.52;9.32;;;;;;;28.60;47.55;101149.09;4972805;28;20046;-81
2022/07/04 04:18:55;;;;;;;14.50;9.27;;;;;;;28.56;47.97;101139.72;4971670;28;20560;-80
2022/07/04 04:21:22;;;;;;;11.75;9.05;;;;;;;28.31;47.79;101099.91;4963844;28;20042;-80
2022/07/04 04:23:49;;;;;;;16.08;10.40;;;;;;;27.96;47.65;101031.75;4951943;28;20050;-81
2022/07/04 04:26:17;;;;;;;13.68;8.93;;;;;;;28.51;47.90;101120.53;4952531;28;20058;-80
2022/07/04 04:28:43;;;;;;;19.15;10.48;;;;;;;28.53;48.12;101123.84;4952117;28;20414;-81
2022/07/04 04:31:10;;;;;;;11.18;9.18;;;;;;;28.49;47.68;101112.56;4962438;28;20136;-80
2022/07/04 04:33:37;;;;;;;13.35;9.55;;;;;;;27.96;46.92;101015.38;4988649;28;20062;-81
2022/07/04 04:36:04;;;;;;;14.13;8.57;;;;;;;28.18;47.49;101047.47;4970980;28;20457;-80
2022/07/04 04:38:31;;;;;;;10.32;8.68;;;;;;;28.79;47.45;101136.09;4970716;28;20512;-80
2022/07/04 04:40:57;;;;;;;13.68;9.10;;;;;;;28.83;47.13;101139.97;4971169;28;20057;-81
2022/07/04 04:43:25;;;;;;;13.82;8.70;;;;;;;28.83;47.44;101139.16;4988355;28;20101;-81
2022/07/04 04:45:52;;;;;;;14.50;9.27;;;;;;;28.77;47.08;101128.13;4971062;28;20113;-80
2022/07/04 04:48:18;;;;;;;11.93;9.05;;;;;;;28.92;46.68;101148.63;4962407;28;20561;-81
2022/07/04 04:50:45;;;;;;;9.73;8.60;;;;;;;28.93;45.72;101144.78;4951167;28;20269;-80
2022/07/04 04:53:12;;;;;;;12.32;8.45;;;;;;;27.74;45.60;100943.44;4983842;28;20053;-80
2022/07/04 04:55:39;;;;;;;14.10;8.48;;;;;;;28.99;45.06;101154.75;4989367;28;20060;-81
2022/07/04 04:58:06;;;;;;;13.75;7.68;;;;;;;29.03;44.01;101134.06;4989818;28;20061;-82
2022/07/04 05:00:33;;;;;;;9.93;7.78;;;;;;;29.06;43.80;101136.31;4989767;28;20078;-81
2022/07/04 05:03:00;;;;;;;12.93;7.70;;;;;;;28.97;43.89;101140.50;5007493;28;20498;-80
2022/07/04 05:05:26;;;;;;;10.45;7.78;;;;;;;29.12;43.51;101148.16;4989492;28;20053;-81
2022/07/04 05:07:53;;;;;;;17.13;8.00;;;;;;;29.26;43.08;101144.03;4989045;28;20061;-80
2022/07/04 05:10:20;;;;;;;12.30;7.03;;;;;;;28.73;43.00;101058.66;4972809;28;20251;-82
2022/07/04 05:12:47;;;;;;;7.70;7.00;;;;;;;28.64;43.53;101048.38;4969681;28;20054;-80
2022/07/04 05:15:14;;;;;;;11.07;8.15;;;;;;;29.35;43.24;101150.75;4981521;28;20058;-80
2022/07/04 05:17:41;;;;;;;9.13;7.50;;;;;;;29.13;42.75;101095.19;4948620;28;20051;-80
2022/07/04 05:20:12;;;;;;;10.18;7.85;;;;;;;29.45;42.44;101135.59;4948220;28;20062;-79
2022/07/04 05:22:39;;;;;;;;;;;;;;;29.36;42.93;101144.22;4948740;28;20051;-78
2022/07/04 05:25:06;;;;;;;11.90;7.75;;;;;;;29.36;42.70;101138.72;4948306;28;20212;-82
2022/07/04 05:27:33;;;;;;;9.07;7.20;;;;;;;29.65;41.89;101146.03;4948338;28;20081;-80
2022/07/04 05:30:00;;;;;;;11.55;7.50;;;;;;;29.65;42.21;101143.28;4947404;28;20133;-81
2022/07/04 05:32:27;;;;;;;9.25;8.25;;;;;;;29.33;42.16;101109.16;4947890;28;20054;-81
2022/07/04 05:34:54;;;;;;;10.48;7.35;;;;;;;29.02;42.05;101058.59;4947391;28;20058;-81
2022/07/04 05:37:21;;;;;;;9.93;7.15;;;;;;;29.37;42.00;101126.75;4949110;28;20069;-80
2022/07/04 05:39:49;;;;;;;8.40;7.57;;;;;;;28.66;42.42;101019.75;4959400;28;20081;-79
2022/07/04 05:42:16;;;;;;;14.13;8.55;;;;;;;29.02;42.95;101066.78;4969029;28;20206;-80
2022/07/04 05:44:43;;;;;;;9.07;7.15;;;;;;;29.44;42.81;101132.00;4968184;28;20058;-80
2022/07/04 05:47:12;;;;;;;9.65;7.38;;;;;;;29.40;42.57;101111.72;4968039;28;20493;-80
2022/07/04 05:49:41;;;;;;;9.95;8.07;;;;;;;29.37;42.54;101091.19;4967741;28;20149;-81
2022/07/04 05:52:08;;;;;;;10.57;7.47;;;;;;;29.55;42.17;101114.69;4985358;28;20125;-81
2022/07/04 05:54:35;;;;;;;14.05;8.05;;;;;;;29.58;41.86;101086.00;4987220;28;20053;-80
2022/07/04 05:57:02;;;;;;;9.02;7.72;;;;;;;29.55;41.90;101075.59;4983028;28;20061;-80
2022/07/04 05:59:29;;;;;;;9.00;8.07;;;;;;;29.98;42.05;101139.69;4950233;28;20046;-80
2022/07/04 06:01:56;;;;;;;13.70;8.63;;;;;;;29.57;42.42;101074.25;4950437;28;20063;-80
2022/07/04 06:04:23;;;;;;;18.08;9.57;;;;;;;30.09;41.80;101146.94;4950156;28;20128;-82
2022/07/04 06:06:50;;;;;;;13.70;8.27;;;;;;;30.06;42.05;101149.38;4968206;28;20043;-78
2022/07/04 06:09:16;;;;;;;10.02;8.75;;;;;;;30.17;41.98;101148.41;4967709;28;20139;-81
2022/07/04 06:11:43;;;;;;;13.38;8.40;;;;;;;29.74;41.83;101078.91;4949611;28;20054;-81
2022/07/04 06:14:10;;;;;;;11.35;8.27;;;;;;;30.24;41.89;101162.75;4948394;28;20055;-80
2022/07/04 06:16:37;;;;;;;10.38;9.27;;;;;;;30.24;41.74;101155.38;4966892;28;20101;-82
2022/07/04 06:19:08;;;;;;;14.05;9.13;;;;;;;30.15;41.67;101128.69;4949116;28;20058;-80
2022/07/04 06:21:35;;;;;;;10.63;9.13;;;;;;;29.51;41.45;101015.06;4966483;28;20527;-80
2022/07/04 06:24:02;;;;;;;14.00;9.75;;;;;;;29.73;41.42;101037.00;4955106;28;20046;-80
2022/07/04 06:26:30;;;;;;;12.05;10.60;;;;;;;30.49;41.23;101150.47;4968690;28;20061;-80
2022/07/04 06:28:57;;;;;;;15.85;9.57;;;;;;;30.58;41.24;101154.44;4985593;28;20427;-81
2022/07/04 06:31:23;;;;;;;12.13;9.80;;;;;;;30.02;41.42;101048.59;4968667;28;20105;-80
2022/07/04 06:36:36;;;;;;;11.00;9.05;;;;;;;30.59;41.62;101139.66;4985853;28;20375;-80
2022/07/04 06:39:02;;;;;;;11.45;10.32;;;;;;;30.70;41.47;101146.88;4967287;28;20441;-81
2022/07/04 06:41:29;;;;;;;14.98;10.40;;;;;;;29.92;40.98;101009.34;4966214;28;20454;-80
2022/07/04 06:43:56;;;;;;;11.18;9.55;;;;;;;30.56;40.72;101107.28;4949533;28;20074;-80
2022/07/04 06:46:25;;;;;;;10.13;9.10;;;;;;;30.87;40.80;101146.81;4949412;28;20400;-82
2022/07/04 06:48:52;;;;;;;12.80;10.65;;;;;;;30.94;40.73;101139.22;4949446;28;20522;-80
2022/07/04 06:51:18;;;;;;;14.68;9.50;;;;;;;30.94;40.88;101130.16;4949137;28;20346;-80
2022/07/04 06:53:45;;;;;;;15.05;9.82;;;;;;;30.82;40.84;101139.34;4972802;28;20528;-80
2022/07/04 06:56:12;;;;;;;14.25;10.40;;;;;;;30.91;40.83;101138.91;4987884;28;20058;-79
2022/07/04 06:58:41;;;;;;;18.45;10.32;;;;;;;30.91;40.94;101136.19;5005191;28;20054;-81
2022/07/04 07:01:08;;;;;;;11.93;9.90;;;;;;;30.95;40.30;101138.16;4987699;28;20551;-79
2022/07/04 07:03:37;;;;;;;12.60;9.98;;;;;;;30.52;40.35;101051.38;5005143;28;20057;-79
2022/07/04 07:06:03;;;;;;;21.50;11.50;;;;;;;31.02;40.76;101137.91;4974274;28;20153;-80
2022/07/04 07:08:30;;;;;;;13.32;11.00;;;;;;;30.98;40.23;101114.88;4967724;28;20085;-80
2022/07/04 07:11:12;;;;;;;10.88;9.45;;;;;;;31.06;40.59;101141.78;4985783;28;20282;-79
2022/07/04 07:13:45;;;;;;;17.42;10.65;;;;;;;30.59;40.04;101068.44;4968325;28;20442;-80
2022/07/04 07:16:13;;;;;;;14.02;10.23;;;;;;;31.01;40.30;101119.81;4985774;28;20043;-79
2022/07/04 07:18:40;;;;;;;11.80;10.25;;;;;;;30.80;40.45;101070.28;4968130;28;20081;-79
2022/07/04 07:21:06;;;;;;;19.27;10.43;;;;;;;31.21;40.72;101128.22;4971752;28;20068;-81
2022/07/04 07:23:33;;;;;;;20.02;10.57;;;;;;;31.34;40.00;101123.38;4957204;28;20437;-80
2022/07/04 07:26:00;;;;;;;17.20;10.02;;;;;;;31.04;40.50;101086.38;4971901;28;20054;-81
2022/07/04 07:28:26;;;;;;;19.13;9.45;;;;;;;30.97;41.09;101055.63;4989349;28;20042;-80
2022/07/04 07:30:53;;;;;;;11.90;9.73;;;;;;;30.98;40.33;101035.38;4970000;28;20056;-80
2022/07/04 07:33:20;;;;;;;10.63;9.50;;;;;;;31.45;40.15;101108.69;4971765;28;20055;-80
2022/07/04 07:35:47;;;;;;;21.08;10.35;;;;;;;31.63;40.06;101126.63;4971659;28;20054;-80
2022/07/04 07:38:14;;;;;;;10.65;9.40;;;;;;;31.73;40.12;101122.03;4989414;28;20104;-80
2022/07/04 07:40:41;;;;;;;16.70;8.68;;;;;;;31.70;38.96;101095.13;4971917;28;20109;-80
2022/07/04 07:43:08;;;;;;;16.05;9.25;;;;;;;31.92;39.06;101114.19;4971444;28;20469;-79
2022/07/04 07:45:35;;;;;;;12.23;8.85;;;;;;;32.02;39.32;101113.44;4988894;28;20074;-79
2022/07/04 07:48:02;;;;;;;18.20;9.05;;;;;;;32.04;39.12;101111.25;4988522;28;20120;-78
2022/07/04 07:50:29;;;;;;;11.57;9.48;;;;;;;32.13;38.37;101109.63;4971539;28;20057;-79
2022/07/04 07:52:56;;;;;;;15.23;10.20;;;;;;;32.06;39.11;101098.06;4976600;28;20057;-80
2022/07/04 07:55:23;;;;;;;12.55;9.27;;;;;;;31.91;39.17;101073.25;4990843;28;20080;-80
2022/07/04 07:57:51;;;;;;;16.23;9.15;;;;;;;32.09;38.97;101086.56;4990619;28;20112;-81
2022/07/04 08:00:18;;;;;;;17.52;9.35;;;;;;;32.12;38.86;101088.75;4990999;28;20440;-81
2022/07/04 08:05:50;;;;;;;14.05;9.93;;;;;;;32.20;38.40;101072.84;4969261;28;20537;-79
2022/07/04 08:08:17;;;;;;;12.30;10.05;;;;;;;31.95;38.48;101019.50;4952071;28;20084;-79
2022/07/04 08:10:45;;;;;;;15.35;10.15;;;;;;;32.46;38.04;101076.50;4951409;28;20051;-79
2022/07/04 08:13:12;;;;;;;16.25;8.90;;;;;;;32.61;38.13;101086.72;4975874;28;20089;-81
2022/07/04 08:15:39;;;;;;;15.20;9.20;;;;;;;32.67;38.61;101091.13;4956129;28;20046;-78
2022/07/04 08:18:05;;;;;;;10.98;9.05;;;;;;;31.85;38.66;100945.34;4972362;28;20061;-81
2022/07/04 08:20:32;;;;;;;17.33;11.07;;;;;;;32.83;37.55;101051.56;4971099;28;20061;-81
2022/07/04 08:23:19;;;;;;;11.43;9.38;;;;;;;32.97;37.46;101085.66;4973724;28;20047;-82
2022/07/04 08:25:46;;;;;;;11.43;9.43;;;;;;;32.83;37.26;101065.31;4969977;28;20435;-81
2022/07/04 08:28:12;;;;;;;11.68;8.88;;;;;;;32.61;37.45;101020.78;4987572;28;20043;-81
2022/07/04 08:30:40;;;;;;;12.35;9.43;;;;;;;33.16;36.75;101085.16;4956207;28;20082;-81
2022/07/04 08:33:07;;;;;;;12.05;9.25;;;;;;;33.10;37.40;101083.50;4954751;28;20533;-81
2022/07/04 08:35:34;;;;;;;20.08;9.73;;;;;;;32.96;37.16;101047.44;4956744;28;20059;-80
2022/07/04 08:38:01;;;;;;;11.38;8.45;;;;;;;33.15;37.54;101070.53;4954991;28;20047;-81
2022/07/04 08:40:30;;;;;;;11.25;9.07;;;;;;;33.17;37.20;101056.53;4986252;28;20054;-79
2022/07/04 08:42:57;;;;;;;15.50;9.70;;;;;;;33.25;36.35;101036.69;4972592;28;20054;-80
2022/07/04 08:45:29;;;;;;;14.98;9.15;;;;;;;33.41;37.07;101060.34;4971264;28;20498;-80
2022/07/04 08:48:01;;;;;;;13.32;8.93;;;;;;;33.32;36.75;101015.22;4970930;28;20459;-80
2022/07/04 08:50:33;;;;;;;15.32;8.80;;;;;;;33.76;36.14;101077.06;4971185;28;20541;-79
2022/07/04 08:53:06;;;;;;;14.68;8.90;;;;;;;33.76;36.08;101075.13;4993755;28;20493;-81
2022/07/04 08:58:31;;;;;;;12.88;8.48;;;;;;;33.76;35.94;101053.09;5007966;28;20042;-80
2022/07/04 09:01:04;;;;;;;11.43;7.90;;;;;;;34.16;35.14;101089.88;5008405;28;20050;-79
2022/07/04 09:03:32;;;;;;;16.00;9.27;;;;;;;34.14;35.50;101088.50;5007894;28;20074;-80
2022/07/04 09:05:59;;;;;;;14.57;8.10;;;;;;;34.14;35.71;101078.31;4990862;28;20056;-80
2022/07/04 09:08:27;;;;;;;14.07;8.80;;;;;;;34.25;35.66;101093.69;4990069;28;20046;-78
2022/07/04 09:10:54;;;;;;;13.00;8.30;;;;;;;34.16;35.42;101056.00;4989882;28;20061;-78
2022/07/04 09:13:27;;;;;;;17.38;8.63;;;;;;;34.06;35.04;101034.81;5007470;28;20060;-80
2022/07/04 09:16:01;;;;;;;15.23;8.95;;;;;;;33.97;35.08;100993.25;4990571;28;20540;-78
2022/07/04 09:18:35;;;;;;;12.07;8.40;;;;;;;34.43;34.87;101044.53;4989981;28;20077;-80
2022/07/04 09:21:05;;;;;;;13.60;8.93;;;;;;;34.81;34.48;101088.94;4985662;28;20129;-79
2022/07/04 09:23:41;;;;;;;11.65;8.63;;;;;;;34.47;34.29;101042.88;4954550;28;20061;-79
2022/07/04 09:26:20;;;;;;;11.07;8.52;;;;;;;34.75;34.68;101090.09;4970144;28;20304;-79
2022/07/04 09:28:58;;;;;;;12.77;9.38;;;;;;;34.83;34.53;101090.31;4970258;28;20066;-79
2022/07/04 09:31:27;;;;;;;15.15;9.25;;;;;;;34.70;34.82;101068.09;4954582;28;20137;-77
2022/07/04 09:34:03;;;;;;;17.73;9.20;;;;;;;34.96;34.91;101091.59;4970509;28;20058;-80
2022/07/04 09:36:38;;;;;;;13.80;8.55;;;;;;;35.05;35.19;101095.38;4969269;28;20058;-79
2022/07/04 09:39:15;;;;;;;18.92;8.43;;;;;;;35.24;34.36;101094.69;4967059;28;20049;-81
2022/07/04 09:42:00;;;;;;;10.95;8.57;;;;;;;35.09;33.76;101085.44;4950253;28;20478;-81
2022/07/04 09:44:29;;;;;;;14.02;8.07;;;;;;;35.25;34.15;101077.03;4950961;28;20109;-80
2022/07/04 09:46:56;;;;;;;14.70;8.82;;;;;;;35.44;33.51;101075.19;4951007;28;20058;-79
2022/07/04 09:49:24;;;;;;;11.75;8.25;;;;;;;35.41;33.63;101074.91;4950839;28;20502;-79
2022/07/04 09:51:53;;;;;;;16.63;9.15;;;;;;;35.40;33.51;101060.31;4967639;28;20047;-79
2022/07/04 09:54:31;;;;;;;8.90;8.10;;;;;;;35.46;33.08;101055.53;4986327;28;20064;-81
2022/07/04 09:57:01;;;;;;;11.25;8.23;;;;;;;35.62;33.43;101075.56;4989673;28;20274;-78
2022/07/04 09:59:28;;;;;;;11.45;8.55;;;;;;;35.71;32.80;101074.63;4989482;28;20413;-80
2022/07/04 10:02:14;;;;;;;10.52;8.77;;;;;;;35.94;32.66;101078.47;4986912;28;20081;-79
2022/07/04 10:04:52;;;;;;;11.77;8.90;;;;;;;36.06;32.99;101082.75;4959488;28;20054;-80
2022/07/04 10:07:37;;;;;;;11.77;8.18;;;;;;;36.10;32.37;101075.56;4968473;28;20305;-80
2022/07/04 10:10:30;;;;;;;15.48;8.30;;;;;;;36.21;31.62;101049.41;4949876;28;20511;-81
2022/07/04 10:13:03;;;;;;;11.75;8.43;;;;;;;35.56;31.67;100938.66;4949537;28;20458;-80
2022/07/04 10:15:36;;;;;;;9.82;8.45;;;;;;;36.50;32.52;101073.31;4964724;28;20074;-81
2022/07/04 10:18:07;;;;;;;17.42;8.63;;;;;;;36.75;31.85;101077.66;4968907;28;20176;-80
2022/07/04 10:20:37;;;;;;;8.18;7.18;;;;;;;36.95;31.55;101082.03;4968366;28;20265;-79
2022/07/04 10:23:04;;;;;;;17.17;7.95;;;;;;;36.92;31.51;101072.41;4985649;28;20062;-79
2022/07/04 10:25:30;;;;;;;11.00;7.95;;;;;;;36.67;31.41;101026.63;4986142;28;20747;-78
2022/07/04 10:27:57;;;;;;;11.50;7.65;;;;;;;37.16;30.85;101088.88;4968597;28;20402;-78
2022/07/04 10:30:30;;;;;;;12.63;7.88;;;;;;;36.97;30.80;101064.00;4959056;28;20331;-80
2022/07/04 10:33:08;;;;;;;12.65;7.70;;;;;;;36.70;30.38;101044.53;4969227;28;20125;-86
2022/07/04 10:35:50;;;;;;;8.35;7.50;;;;;;;36.96;31.04;101094.75;4969319;28;20501;-79
2022/07/04 10:38:18;;;;;;;10.75;7.68;;;;;;;36.81;31.24;101076.47;4969687;28;20052;-79
2022/07/04 10:40:46;;;;;;;13.15;8.00;;;;;;;36.41;31.21;101041.94;4968947;28;20054;-79
2022/07/04 10:43:42;;;;;;;15.18;8.05;;;;;;;36.65;30.60;101081.41;4969419;28;20053;-78
2022/07/04 10:46:12;;;;;;;19.10;7.35;;;;;;;36.75;30.90;101081.25;4958836;28;20050;-80
2022/07/04 10:48:52;;;;;;;13.50;8.18;;;;;;;36.75;31.76;101086.78;4970002;28;20054;-79
2022/07/04 10:51:50;;;;;;;9.82;7.88;;;;;;;36.75;31.73;101080.41;4969803;28;20053;-80
2022/07/04 10:54:34;;;;;;;9.90;7.88;;;;;;;36.42;31.78;101049.94;4987097;28;20367;-80
2022/07/04 10:57:21;;;;;;;14.32;8.20;;;;;;;36.50;31.30;101078.84;4993747;28;20061;-80
2022/07/04 10:59:55;;;;;;;11.25;8.20;;;;;;;36.52;31.22;101076.59;4994464;28;20049;-78
2022/07/04 11:02:36;;;;;;;9.32;7.13;;;;;;;35.72;31.89;100962.22;4970326;28;20050;-78
2022/07/04 11:05:08;;;;;;;15.20;8.18;;;;;;;36.45;31.41;101054.84;4973983;28;20113;-79
2022/07/04 11:07:35;;;;;;;14.95;8.75;;;;;;;36.60;32.19;101058.53;4991567;28;20077;-80
2022/07/04 11:10:16;;;;;;;9.52;7.85;;;;;;;36.50;32.63;101056.72;4973220;28;20054;-80
2022/07/04 11:12:55;;;;;;;9.60;7.68;;;;;;;36.37;32.51;101059.13;4972924;28;20054;-80
2022/07/04 11:15:32;;;;;;;10.93;8.68;;;;;;;36.45;32.51;101049.34;4973480;28;20049;-80
2022/07/04 11:18:01;;;;;;;12.20;8.43;;;;;;;35.81;32.38;100952.16;4972875;28;20058;-79
2022/07/04 11:20:33;;;;;;;16.52;8.25;;;;;;;36.27;31.98;100970.03;4972553;28;20042;-78
2022/07/04 11:23:14;;;;;;;14.88;7.85;;;;;;;36.71;31.87;101035.16;4972348;28;20322;-81
2022/07/04 11:25:44;;;;;;;12.65;8.50;;;;;;;36.55;31.82;101015.16;4969686;28;20082;-79
2022/07/04 11:28:18;;;;;;;11.25;7.75;;;;;;;36.79;31.65;101035.25;4964944;28;20340;-81
2022/07/04 11:31:04;;;;;;;12.45;7.97;;;;;;;36.10;31.91;100905.06;4967065;28;20055;-79
2022/07/04 11:33:34;;;;;;;9.80;7.82;;;;;;;36.88;31.62;101040.94;4960706;28;20141;-81
2022/07/04 11:36:05;;;;;;;9.93;7.68;;;;;;;36.81;31.35;101012.03;4953905;28;20506;-80
2022/07/04 11:38:55;;;;;;;14.45;7.95;;;;;;;36.88;32.14;101046.47;4953947;28;20061;-80